Terminal Aerodrome Forecast
Issued by NWS Pocatello, ID

Home | Current Version | Previous Version | Text Only | Print | Product List | Glossary On
Versions: 1 2 3 4 5 6 7 8 9 10 11 12 13
000
FTUS45 KPIH 291721
TAFBYI
TAF
KBYI 291721Z 2918/3018 17007KT P6SM VCSH BKN100
     FM292100 17010KT P6SM VCTS SCT050CB OVC080
     FM300200 15010KT P6SM VCSH SCT080 BKN120=

USA.gov is the U.S. government's official web portal to all federal, state and local government web resources and services.